createdAt,value
2023-01-22T00:00:04.692Z,1018.05
2023-01-22T00:01:04.642Z,1018.07
2023-01-22T00:02:04.641Z,1018.08
2023-01-22T00:03:04.629Z,1018.10
2023-01-22T00:04:04.646Z,1018.03
2023-01-22T00:05:04.662Z,1018.05
2023-01-22T00:06:04.590Z,1018.08
2023-01-22T00:07:04.578Z,1018.05
2023-01-22T00:08:04.556Z,1018.10
2023-01-22T00:09:04.534Z,1018.09
2023-01-22T00:10:04.569Z,1018.11
2023-01-22T00:11:04.535Z,1018.15
2023-01-22T00:12:04.514Z,1018.14
2023-01-22T00:13:04.514Z,1018.14
2023-01-22T00:14:04.523Z,1018.17
2023-01-22T00:15:04.519Z,1018.16
2023-01-22T00:16:04.525Z,1018.19
2023-01-22T00:17:04.483Z,1018.17
2023-01-22T00:18:04.447Z,1018.20
2023-01-22T00:19:04.417Z,1018.16
2023-01-22T00:20:04.469Z,1018.20
2023-01-22T00:21:04.417Z,1018.27
2023-01-22T00:22:04.417Z,1018.22
2023-01-22T00:23:04.392Z,1018.26
2023-01-22T00:24:04.414Z,1018.31
2023-01-22T00:25:04.430Z,1018.27
2023-01-22T00:26:04.401Z,1018.26
2023-01-22T00:27:04.349Z,1018.31
2023-01-22T00:28:04.347Z,1018.30
2023-01-22T00:29:04.347Z,1018.29
2023-01-22T00:30:04.373Z,1018.27
2023-01-22T00:31:04.404Z,1018.30
2023-01-22T00:32:04.397Z,1018.34
2023-01-22T00:33:04.298Z,1018.30
2023-01-22T00:34:04.278Z,1018.29
2023-01-22T00:35:04.298Z,1018.31
2023-01-22T00:36:04.234Z,1018.36
2023-01-22T00:37:04.215Z,1018.35
2023-01-22T00:38:04.230Z,1018.37
2023-01-22T00:39:04.236Z,1018.35
2023-01-22T00:40:04.253Z,1018.37
2023-01-22T00:41:04.185Z,1018.35
2023-01-22T00:42:04.170Z,1018.42
2023-01-22T00:43:04.154Z,1018.37
2023-01-22T00:44:04.152Z,1018.42
2023-01-22T00:45:04.207Z,1018.44
2023-01-22T00:46:04.132Z,1018.47
2023-01-22T00:47:04.112Z,1018.48
2023-01-22T00:48:04.100Z,1018.47
2023-01-22T00:49:04.095Z,1018.43
2023-01-22T00:50:04.142Z,1018.44
2023-01-22T00:51:04.186Z,1018.46
2023-01-22T00:52:04.060Z,1018.46
2023-01-22T00:53:04.061Z,1018.43
2023-01-22T00:54:04.039Z,1018.47
2023-01-22T00:55:04.057Z,1018.42
2023-01-22T00:56:04.006Z,1018.48
2023-01-22T00:57:04.026Z,1018.47
2023-01-22T00:58:04.000Z,1018.49
2023-01-22T00:59:03.965Z,1018.48
2023-01-22T01:00:04.025Z,1018.50
2023-01-22T01:01:04.001Z,1018.50
2023-01-22T01:02:04.030Z,1018.49
2023-01-22T01:03:03.950Z,1018.46
2023-01-22T01:04:03.918Z,1018.43
2023-01-22T01:05:03.944Z,1018.42
2023-01-22T01:06:03.893Z,1018.42
2023-01-22T01:07:03.874Z,1018.45
2023-01-22T01:08:03.872Z,1018.38
2023-01-22T01:09:03.882Z,1018.39
2023-01-22T01:10:03.904Z,1018.39
2023-01-22T01:11:03.851Z,1018.41
2023-01-22T01:12:03.839Z,1018.39
2023-01-22T01:13:03.808Z,1018.40
2023-01-22T01:14:03.824Z,1018.45
2023-01-22T01:15:03.854Z,1018.37
2023-01-22T01:16:03.901Z,1018.41
2023-01-22T01:17:03.783Z,1018.43
2023-01-22T01:18:03.763Z,1018.40
2023-01-22T01:19:03.765Z,1018.43
2023-01-22T01:20:03.788Z,1018.46
2023-01-22T01:21:03.745Z,1018.46
2023-01-22T01:22:03.718Z,1018.45
2023-01-22T01:23:03.696Z,1018.49
2023-01-22T01:24:03.708Z,1018.45
2023-01-22T01:25:03.730Z,1018.54
2023-01-22T01:26:03.684Z,1018.55
2023-01-22T01:27:03.652Z,1018.47
2023-01-22T01:28:03.649Z,1018.48
2023-01-22T01:29:03.644Z,1018.47
2023-01-22T01:30:03.694Z,1018.49
2023-01-22T01:31:03.756Z,1018.50
2023-01-22T01:32:03.713Z,1018.51
2023-01-22T01:33:03.603Z,1018.49
2023-01-22T01:34:03.591Z,1018.46
2023-01-22T01:35:03.606Z,1018.46
2023-01-22T01:36:03.547Z,1018.44
2023-01-22T01:37:03.552Z,1018.47
2023-01-22T01:38:03.541Z,1018.42
2023-01-22T01:39:03.539Z,1018.41
2023-01-22T01:40:03.582Z,1018.44
2023-01-22T01:41:03.510Z,1018.41
2023-01-22T01:42:03.496Z,1018.40
2023-01-22T01:43:03.492Z,1018.43
2023-01-22T01:44:03.484Z,1018.40
2023-01-22T01:45:03.505Z,1018.42
2023-01-22T01:46:03.465Z,1018.43
2023-01-22T01:47:03.444Z,1018.44
2023-01-22T01:48:03.443Z,1018.38
2023-01-22T01:49:03.424Z,1018.42
2023-01-22T01:50:03.406Z,1018.40
2023-01-22T01:51:03.501Z,1018.41
2023-01-22T01:52:03.383Z,1018.43
2023-01-22T01:53:03.385Z,1018.46
2023-01-22T01:54:03.385Z,1018.47
2023-01-22T01:55:03.350Z,1018.50
2023-01-22T01:56:03.398Z,1018.48
2023-01-22T01:57:03.331Z,1018.53
2023-01-22T01:58:03.345Z,1018.49
2023-01-22T01:59:03.314Z,1018.48
2023-01-22T02:00:03.305Z,1018.49
2023-01-22T02:01:03.373Z,1018.52
2023-01-22T02:02:03.298Z,1018.52
2023-01-22T02:03:03.248Z,1018.50
2023-01-22T02:04:03.242Z,1018.47
2023-01-22T02:05:03.247Z,1018.52
2023-01-22T02:06:03.297Z,1018.53
2023-01-22T02:07:03.212Z,1018.58
2023-01-22T02:08:03.188Z,1018.58
2023-01-22T02:09:03.178Z,1018.64
2023-01-22T02:10:03.183Z,1018.57
2023-01-22T02:11:03.223Z,1018.66
2023-01-22T02:12:03.158Z,1018.60
2023-01-22T02:13:03.144Z,1018.64
2023-01-22T02:14:03.148Z,1018.60
2023-01-22T02:15:03.130Z,1018.61
2023-01-22T02:16:03.236Z,1018.57
2023-01-22T02:17:03.102Z,1018.56
2023-01-22T02:18:03.089Z,1018.63
2023-01-22T02:19:03.074Z,1018.52
2023-01-22T02:20:03.067Z,1018.58
2023-01-22T02:21:03.104Z,1018.59
2023-01-22T02:22:03.043Z,1018.56
2023-01-22T02:23:03.032Z,1018.58
2023-01-22T02:24:03.030Z,1018.66
2023-01-22T02:25:03.015Z,1018.63
2023-01-22T02:26:03.043Z,1018.63
2023-01-22T02:27:02.971Z,1018.66
2023-01-22T02:28:02.972Z,1018.67
2023-01-22T02:29:02.969Z,1018.69
2023-01-22T02:30:02.957Z,1018.68
2023-01-22T02:31:03.055Z,1018.67
2023-01-22T02:32:02.940Z,1018.67
2023-01-22T02:33:02.927Z,1018.68
2023-01-22T02:34:02.903Z,1018.69
2023-01-22T02:35:02.913Z,1018.73
2023-01-22T02:36:02.916Z,1018.68
2023-01-22T02:37:02.871Z,1018.70
2023-01-22T02:38:02.881Z,1018.72
2023-01-22T02:39:02.873Z,1018.69
2023-01-22T02:40:02.840Z,1018.76
2023-01-22T02:41:02.884Z,1018.74
2023-01-22T02:42:02.827Z,1018.74
2023-01-22T02:43:02.800Z,1018.78
2023-01-22T02:44:02.800Z,1018.74
2023-01-22T02:45:02.768Z,1018.76
2023-01-22T02:46:02.916Z,1018.70
2023-01-22T02:47:02.774Z,1018.76
2023-01-22T02:48:02.753Z,1018.68
2023-01-22T02:49:02.744Z,1018.68
2023-01-22T02:50:02.718Z,1018.65
2023-01-22T02:51:02.807Z,1018.68
2023-01-22T02:52:02.707Z,1018.68
2023-01-22T02:53:02.733Z,1018.72
2023-01-22T02:54:02.688Z,1018.71
2023-01-22T02:55:02.651Z,1018.79
2023-01-22T02:56:02.690Z,1018.71
2023-01-22T02:57:02.630Z,1018.66
2023-01-22T02:58:02.626Z,1018.70
2023-01-22T02:59:02.631Z,1018.76
2023-01-22T03:00:02.642Z,1018.72
2023-01-22T03:01:02.669Z,1018.78
2023-01-22T03:02:02.662Z,1018.76
2023-01-22T03:03:02.588Z,1018.76
2023-01-22T03:04:02.567Z,1018.74
2023-01-22T03:05:02.579Z,1018.72
2023-01-22T03:06:02.593Z,1018.76
2023-01-22T03:07:02.520Z,1018.77
2023-01-22T03:08:02.519Z,1018.76
2023-01-22T03:09:02.554Z,1018.75
2023-01-22T03:10:02.513Z,1018.76
2023-01-22T03:11:02.515Z,1018.83
2023-01-22T03:12:02.476Z,1018.75
2023-01-22T03:13:02.467Z,1018.80
2023-01-22T03:14:02.468Z,1018.78
2023-01-22T03:15:02.434Z,1018.80
2023-01-22T03:16:02.487Z,1018.81
2023-01-22T03:17:02.423Z,1018.77
2023-01-22T03:18:02.406Z,1018.80
2023-01-22T03:19:02.379Z,1018.83
2023-01-22T03:20:02.393Z,1018.93
2023-01-22T03:21:02.486Z,1018.84
2023-01-22T03:22:02.394Z,1018.85
2023-01-22T03:23:02.332Z,1018.86
2023-01-22T03:24:02.331Z,1018.89
2023-01-22T03:25:02.319Z,1018.90
2023-01-22T03:26:02.372Z,1018.86
2023-01-22T03:27:02.306Z,1018.92
2023-01-22T03:28:02.331Z,1018.92
2023-01-22T03:29:02.272Z,1018.90
2023-01-22T03:30:02.295Z,1018.88
2023-01-22T03:31:02.324Z,1018.91
2023-01-22T03:32:02.349Z,1018.87
2023-01-22T03:33:02.256Z,1018.89
2023-01-22T03:34:02.220Z,1018.91
2023-01-22T03:35:02.229Z,1018.95
2023-01-22T03:36:02.248Z,1018.93
2023-01-22T03:37:02.204Z,1018.92
2023-01-22T03:38:02.167Z,1018.92
2023-01-22T03:39:02.158Z,1018.96
2023-01-22T03:40:02.169Z,1018.90
2023-01-22T03:41:02.190Z,1018.94
2023-01-22T03:42:02.126Z,1018.95
2023-01-22T03:43:02.132Z,1018.96
2023-01-22T03:44:02.125Z,1018.94
2023-01-22T03:45:02.098Z,1018.92
2023-01-22T03:46:02.201Z,1018.95
2023-01-22T03:47:02.070Z,1018.92
2023-01-22T03:48:02.093Z,1018.91
2023-01-22T03:49:02.063Z,1018.93
2023-01-22T03:50:02.048Z,1018.98
2023-01-22T03:51:02.089Z,1018.94
2023-01-22T03:52:02.011Z,1018.96
2023-01-22T03:53:02.010Z,1019.00
2023-01-22T03:54:02.021Z,1019.01
2023-01-22T03:55:01.980Z,1019.03
2023-01-22T03:56:02.030Z,1019.05
2023-01-22T03:57:01.972Z,1019.10
2023-01-22T03:58:01.969Z,1019.04
2023-01-22T03:59:01.939Z,1019.12
2023-01-22T04:00:01.941Z,1019.13
2023-01-22T04:01:02.039Z,1019.08
2023-01-22T04:02:01.949Z,1019.12
2023-01-22T04:03:01.917Z,1019.11
2023-01-22T04:04:01.897Z,1019.15
2023-01-22T04:05:01.887Z,1019.20
2023-01-22T04:06:01.925Z,1019.17
2023-01-22T04:07:01.838Z,1019.19
2023-01-22T04:08:01.845Z,1019.21
2023-01-22T04:09:01.831Z,1019.21
2023-01-22T04:10:01.838Z,1019.24
2023-01-22T04:11:01.866Z,1019.23
2023-01-22T04:12:01.810Z,1019.20
2023-01-22T04:13:01.781Z,1019.26
2023-01-22T04:14:01.773Z,1019.27
2023-01-22T04:15:01.750Z,1019.29
2023-01-22T04:16:01.830Z,1019.28
2023-01-22T04:17:01.718Z,1019.25
2023-01-22T04:18:01.705Z,1019.27
2023-01-22T04:19:01.697Z,1019.33
2023-01-22T04:20:01.697Z,1019.31
2023-01-22T04:21:01.758Z,1019.31
2023-01-22T04:22:01.671Z,1019.31
2023-01-22T04:23:01.672Z,1019.32
2023-01-22T04:24:01.641Z,1019.33
2023-01-22T04:25:01.660Z,1019.33
2023-01-22T04:26:01.679Z,1019.37
2023-01-22T04:27:01.627Z,1019.37
2023-01-22T04:28:01.604Z,1019.39
2023-01-22T04:29:01.581Z,1019.41
2023-01-22T04:30:01.584Z,1019.42
2023-01-22T04:31:01.676Z,1019.41
2023-01-22T04:32:01.584Z,1019.44
2023-01-22T04:33:01.589Z,1019.49
2023-01-22T04:34:01.557Z,1019.50
2023-01-22T04:35:01.544Z,1019.46
2023-01-22T04:36:01.564Z,1019.49
2023-01-22T04:37:01.551Z,1019.52
2023-01-22T04:38:01.488Z,1019.51
2023-01-22T04:39:01.474Z,1019.54
2023-01-22T04:40:01.470Z,1019.52
2023-01-22T04:41:01.543Z,1019.50
2023-01-22T04:42:01.453Z,1019.46
2023-01-22T04:43:01.439Z,1019.48
2023-01-22T04:44:01.426Z,1019.46
2023-01-22T04:45:01.412Z,1019.53
2023-01-22T04:46:01.403Z,1019.56
2023-01-22T04:47:01.428Z,1019.46
2023-01-22T04:48:01.365Z,1019.47
2023-01-22T04:49:01.370Z,1019.49
2023-01-22T04:50:01.348Z,1019.50
2023-01-22T04:51:01.382Z,1019.52
2023-01-22T04:52:01.364Z,1019.53
2023-01-22T04:53:01.344Z,1019.55
2023-01-22T04:54:01.306Z,1019.51
2023-01-22T04:55:01.285Z,1019.55
2023-01-22T04:56:01.288Z,1019.56
2023-01-22T04:57:01.317Z,1019.57
2023-01-22T04:58:01.279Z,1019.55
2023-01-22T04:59:01.249Z,1019.57
2023-01-22T05:00:01.248Z,1019.59
2023-01-22T05:01:01.303Z,1019.63
2023-01-22T05:02:01.263Z,1019.65
2023-01-22T05:03:01.216Z,1019.65
2023-01-22T05:04:01.195Z,1019.63
2023-01-22T05:05:01.180Z,1019.60
2023-01-22T05:06:01.166Z,1019.60
2023-01-22T05:07:01.223Z,1019.59
2023-01-22T05:08:01.145Z,1019.60
2023-01-22T05:09:01.152Z,1019.66
2023-01-22T05:10:01.125Z,1019.61
2023-01-22T05:11:01.111Z,1019.66
2023-01-22T05:12:01.148Z,1019.67
2023-01-22T05:13:01.090Z,1019.65
2023-01-22T05:14:01.106Z,1019.63
2023-01-22T05:15:01.077Z,1019.60
2023-01-22T05:16:01.141Z,1019.60
2023-01-22T05:17:01.083Z,1019.64
2023-01-22T05:18:01.035Z,1019.59
2023-01-22T05:19:01.056Z,1019.61
2023-01-22T05:20:01.005Z,1019.67
2023-01-22T05:21:00.991Z,1019.64
2023-01-22T05:22:01.044Z,1019.65
2023-01-22T05:23:00.983Z,1019.69
2023-01-22T05:24:00.959Z,1019.67
2023-01-22T05:25:00.959Z,1019.68
2023-01-22T05:26:00.944Z,1019.64
2023-01-22T05:27:00.985Z,1019.70
2023-01-22T05:28:00.932Z,1019.74
2023-01-22T05:29:00.936Z,1019.70
2023-01-22T05:30:00.896Z,1019.73
2023-01-22T05:31:01.023Z,1019.72
2023-01-22T05:32:00.927Z,1019.75
2023-01-22T05:33:00.855Z,1019.72
2023-01-22T05:34:00.869Z,1019.74
2023-01-22T05:35:00.861Z,1019.76
2023-01-22T05:36:00.856Z,1019.72
2023-01-22T05:37:00.871Z,1019.77
2023-01-22T05:38:00.808Z,1019.78
2023-01-22T05:39:00.778Z,1019.78
2023-01-22T05:40:00.791Z,1019.79
2023-01-22T05:41:00.776Z,1019.82
2023-01-22T05:42:00.805Z,1019.81
2023-01-22T05:43:00.737Z,1019.80
2023-01-22T05:44:00.741Z,1019.87
2023-01-22T05:45:00.711Z,1019.81
2023-01-22T05:46:00.756Z,1019.80
2023-01-22T05:47:00.751Z,1019.84
2023-01-22T05:48:00.699Z,1019.90
2023-01-22T05:49:00.675Z,1019.83
2023-01-22T05:50:00.667Z,1019.85
2023-01-22T05:51:00.655Z,1019.86
2023-01-22T05:52:00.687Z,1019.86
2023-01-22T05:53:00.629Z,1019.86
2023-01-22T05:54:00.634Z,1019.85
2023-01-22T05:55:00.622Z,1019.83
2023-01-22T05:56:00.610Z,1019.84
2023-01-22T05:57:00.646Z,1019.85
2023-01-22T05:58:00.565Z,1019.91
2023-01-22T05:59:00.563Z,1019.96
2023-01-22T06:00:00.575Z,1019.91
2023-01-22T06:01:00.544Z,1019.97
2023-01-22T06:02:00.583Z,1019.96
2023-01-22T06:03:00.524Z,1019.96
2023-01-22T06:04:00.541Z,1019.95
2023-01-22T06:05:00.554Z,1019.94
2023-01-22T06:06:00.491Z,1019.96
2023-01-22T06:07:00.510Z,1019.93
2023-01-22T06:08:00.479Z,1019.94
2023-01-22T06:09:00.461Z,1020.00
2023-01-22T06:10:00.452Z,1020.05
2023-01-22T06:11:00.423Z,1020.00
2023-01-22T06:12:00.472Z,1019.99
2023-01-22T06:13:00.394Z,1020.04
2023-01-22T06:14:00.406Z,1020.03
2023-01-22T06:15:00.424Z,1020.06
2023-01-22T06:16:00.442Z,1020.00
2023-01-22T06:17:00.391Z,1020.05
2023-01-22T06:18:00.349Z,1020.09
2023-01-22T06:19:00.333Z,1020.12
2023-01-22T06:20:00.345Z,1020.09
2023-01-22T06:21:00.322Z,1020.14
2023-01-22T06:22:00.351Z,1020.08
2023-01-22T06:23:00.300Z,1020.14
2023-01-22T06:24:00.295Z,1020.13
2023-01-22T06:25:00.271Z,1020.17
2023-01-22T06:26:00.284Z,1020.21
2023-01-22T06:27:00.288Z,1020.12
2023-01-22T06:28:00.230Z,1020.17
2023-01-22T06:29:00.224Z,1020.16
2023-01-22T06:30:00.220Z,1020.15
2023-01-22T06:31:00.263Z,1020.17
2023-01-22T06:32:00.240Z,1020.25
2023-01-22T06:33:00.177Z,1020.27
2023-01-22T06:34:00.173Z,1020.25
2023-01-22T06:35:00.169Z,1020.30
2023-01-22T06:36:00.154Z,1020.33
2023-01-22T06:37:00.180Z,1020.32
2023-01-22T06:38:00.145Z,1020.30
2023-01-22T06:39:00.228Z,1020.34
2023-01-22T06:40:00.142Z,1020.34
2023-01-22T06:41:00.099Z,1020.30
2023-01-22T06:42:00.115Z,1020.36
2023-01-22T06:43:00.065Z,1020.38
2023-01-22T06:44:00.048Z,1020.40
2023-01-22T06:45:00.045Z,1020.41
2023-01-22T06:46:00.071Z,1020.42
2023-01-22T06:47:00.099Z,1020.41
2023-01-22T06:48:00.000Z,1020.48
2023-01-22T06:48:59.982Z,1020.42
2023-01-22T06:49:59.994Z,1020.45
2023-01-22T06:51:00.002Z,1020.44
2023-01-22T06:52:00.005Z,1020.44
2023-01-22T06:52:59.947Z,1020.44
2023-01-22T06:53:59.936Z,1020.43
2023-01-22T06:54:59.920Z,1020.46
2023-01-22T06:55:59.915Z,1020.51
2023-01-22T06:56:59.951Z,1020.51
2023-01-22T06:57:59.891Z,1020.47
2023-01-22T06:58:59.923Z,1020.45
2023-01-22T06:59:59.882Z,1020.51
2023-01-22T07:00:59.862Z,1020.59
2023-01-22T07:02:00.003Z,1020.60
2023-01-22T07:02:59.842Z,1020.59
2023-01-22T07:03:59.914Z,1020.59
2023-01-22T07:04:59.825Z,1020.62
2023-01-22T07:05:59.814Z,1020.64
2023-01-22T07:06:59.831Z,1020.67
2023-01-22T07:07:59.762Z,1020.66
2023-01-22T07:08:59.757Z,1020.72
2023-01-22T07:09:59.772Z,1020.72
2023-01-22T07:10:59.775Z,1020.72
2023-01-22T07:11:59.731Z,1020.76
2023-01-22T07:12:59.778Z,1020.83
2023-01-22T07:13:59.711Z,1020.80
2023-01-22T07:14:59.711Z,1020.85
2023-01-22T07:15:59.792Z,1020.87
2023-01-22T07:16:59.679Z,1020.85
2023-01-22T07:17:59.703Z,1020.85
2023-01-22T07:18:59.659Z,1020.87
2023-01-22T07:19:59.664Z,1020.86
2023-01-22T07:20:59.655Z,1020.87
2023-01-22T07:21:59.627Z,1020.89
2023-01-22T07:23:00.233Z,1020.92
2023-01-22T07:23:59.607Z,1020.97
2023-01-22T07:24:59.613Z,1020.94
2023-01-22T07:25:59.580Z,1020.98
2023-01-22T07:26:59.606Z,1021.03
2023-01-22T07:27:59.603Z,1021.03
2023-01-22T07:28:59.575Z,1021.01
2023-01-22T07:29:59.531Z,1020.95
2023-01-22T07:30:59.645Z,1020.99
2023-01-22T07:31:59.506Z,1020.99
2023-01-22T07:32:59.549Z,1020.98
2023-01-22T07:33:59.473Z,1020.99
2023-01-22T07:34:59.469Z,1020.97
2023-01-22T07:35:59.456Z,1021.01
2023-01-22T07:36:59.470Z,1021.04
2023-01-22T07:37:59.493Z,1021.06
2023-01-22T07:38:59.452Z,1020.99
2023-01-22T07:39:59.416Z,1021.06
2023-01-22T07:40:59.414Z,1021.05
2023-01-22T07:41:59.399Z,1021.05
2023-01-22T07:42:59.444Z,1021.02
2023-01-22T07:43:59.375Z,1021.06
2023-01-22T07:44:59.367Z,1021.05
2023-01-22T07:45:59.363Z,1021.07
2023-01-22T07:46:59.326Z,1021.04
2023-01-22T07:47:59.380Z,1021.09
2023-01-22T07:48:59.325Z,1021.06
2023-01-22T07:49:59.291Z,1021.08
2023-01-22T07:50:59.333Z,1021.12
2023-01-22T07:51:59.290Z,1021.18
2023-01-22T07:52:59.317Z,1021.15
2023-01-22T07:53:59.242Z,1021.18
2023-01-22T07:54:59.260Z,1021.19
2023-01-22T07:55:59.251Z,1021.15
2023-01-22T07:56:59.255Z,1021.18
2023-01-22T07:57:59.261Z,1021.13
2023-01-22T07:58:59.206Z,1021.20
2023-01-22T07:59:59.208Z,1021.23
2023-01-22T08:00:59.235Z,1021.25
2023-01-22T08:02:00.269Z,1021.25
2023-01-22T08:02:59.200Z,1021.22
2023-01-22T08:03:59.148Z,1021.26
2023-01-22T08:04:59.131Z,1021.29
2023-01-22T08:05:59.108Z,1021.32
2023-01-22T08:06:59.132Z,1021.36
2023-01-22T08:07:59.152Z,1021.37
2023-01-22T08:08:59.116Z,1021.39
2023-01-22T08:09:59.081Z,1021.38
2023-01-22T08:10:59.086Z,1021.37
2023-01-22T08:11:59.048Z,1021.36
2023-01-22T08:12:59.118Z,1021.41
2023-01-22T08:13:59.093Z,1021.38
2023-01-22T08:14:59.017Z,1021.41
2023-01-22T08:15:59.152Z,1021.45
2023-01-22T08:16:59.002Z,1021.41
2023-01-22T08:17:59.073Z,1021.43
2023-01-22T08:18:58.977Z,1021.45
2023-01-22T08:19:59.002Z,1021.46
2023-01-22T08:20:58.964Z,1021.47
2023-01-22T08:21:58.927Z,1021.48
2023-01-22T08:22:58.975Z,1021.49
2023-01-22T08:23:58.942Z,1021.48
2023-01-22T08:24:58.917Z,1021.49
2023-01-22T08:25:58.902Z,1021.49
2023-01-22T08:26:58.901Z,1021.48
2023-01-22T08:27:58.936Z,1021.50
2023-01-22T08:28:58.846Z,1021.48
2023-01-22T08:29:58.836Z,1021.50
2023-01-22T08:30:58.831Z,1021.50
2023-01-22T08:31:59.004Z,1021.51
2023-01-22T08:32:58.871Z,1021.51
2023-01-22T08:33:58.831Z,1021.57
2023-01-22T08:34:58.809Z,1021.53
2023-01-22T08:35:58.774Z,1021.56
2023-01-22T08:36:58.781Z,1021.53
2023-01-22T08:37:58.808Z,1021.57
2023-01-22T08:38:58.764Z,1021.56
2023-01-22T08:39:58.731Z,1021.63
2023-01-22T08:40:58.752Z,1021.62
2023-01-22T08:41:58.703Z,1021.68
2023-01-22T08:42:58.755Z,1021.65
2023-01-22T08:43:58.686Z,1021.64
2023-01-22T08:44:58.671Z,1021.66
2023-01-22T08:45:58.684Z,1021.67
2023-01-22T08:46:58.674Z,1021.68
2023-01-22T08:47:58.692Z,1021.64
2023-01-22T08:48:58.639Z,1021.67
2023-01-22T08:49:58.623Z,1021.71
2023-01-22T08:50:58.701Z,1021.69
2023-01-22T08:51:58.609Z,1021.69
2023-01-22T08:52:58.650Z,1021.74
2023-01-22T08:53:58.577Z,1021.76
2023-01-22T08:54:58.584Z,1021.75
2023-01-22T08:55:58.645Z,1021.77
2023-01-22T08:56:58.554Z,1021.79
2023-01-22T08:57:58.560Z,1021.76
2023-01-22T08:58:58.572Z,1021.79
2023-01-22T09:00:01.341Z,1021.79
2023-01-22T09:00:58.524Z,1021.79
2023-01-22T09:01:58.531Z,1021.79
2023-01-22T09:02:58.555Z,1021.80
2023-01-22T09:03:58.475Z,1021.84
2023-01-22T09:04:58.459Z,1021.85
2023-01-22T09:05:58.448Z,1021.81
2023-01-22T09:06:58.456Z,1021.83
2023-01-22T09:07:58.475Z,1021.85
2023-01-22T09:08:58.403Z,1021.93
2023-01-22T09:09:58.389Z,1021.92
2023-01-22T09:10:58.398Z,1021.89
2023-01-22T09:11:58.372Z,1021.91
2023-01-22T09:12:58.420Z,1021.87
2023-01-22T09:13:58.375Z,1021.88
2023-01-22T09:14:58.358Z,1021.88
2023-01-22T09:15:58.623Z,1021.93
2023-01-22T09:16:58.325Z,1021.90
2023-01-22T09:17:58.345Z,1021.89
2023-01-22T09:18:58.307Z,1021.93
2023-01-22T09:19:58.304Z,1021.96
2023-01-22T09:20:58.277Z,1021.94
2023-01-22T09:21:58.300Z,1021.90
2023-01-22T09:22:58.285Z,1021.91
2023-01-22T09:23:58.237Z,1021.89
2023-01-22T09:24:58.209Z,1021.93
2023-01-22T09:25:58.215Z,1021.91
2023-01-22T09:26:58.205Z,1021.92
2023-01-22T09:27:58.247Z,1021.97
2023-01-22T09:28:58.201Z,1021.96
2023-01-22T09:29:58.174Z,1021.97
2023-01-22T09:30:58.245Z,1022.00
2023-01-22T09:31:58.211Z,1021.96
2023-01-22T09:32:58.204Z,1021.91
2023-01-22T09:33:58.125Z,1021.94
2023-01-22T09:34:58.135Z,1021.89
2023-01-22T09:35:58.115Z,1021.87
2023-01-22T09:36:58.099Z,1021.94
2023-01-22T09:37:58.098Z,1021.94
2023-01-22T09:38:58.130Z,1021.96
2023-01-22T09:39:58.091Z,1022.00
2023-01-22T09:40:58.055Z,1021.90
2023-01-22T09:41:58.044Z,1021.97
2023-01-22T09:42:58.043Z,1021.92
2023-01-22T09:43:58.081Z,1021.96
2023-01-22T09:44:58.046Z,1021.98
2023-01-22T09:45:58.016Z,1021.97
2023-01-22T09:46:57.998Z,1021.98
2023-01-22T09:47:57.980Z,1021.98
2023-01-22T09:48:58.027Z,1022.02
2023-01-22T09:49:57.936Z,1022.01
2023-01-22T09:50:57.936Z,1022.00
2023-01-22T09:51:57.898Z,1021.99
2023-01-22T09:52:57.926Z,1021.97
2023-01-22T09:53:57.946Z,1021.97
2023-01-22T09:54:57.892Z,1021.91
2023-01-22T09:55:57.866Z,1021.87
2023-01-22T09:56:57.869Z,1021.91
2023-01-22T09:57:57.863Z,1021.87
2023-01-22T09:58:57.903Z,1021.86
2023-01-22T09:59:57.833Z,1021.93
2023-01-22T10:01:00.124Z,1021.92
2023-01-22T10:01:57.815Z,1021.90
2023-01-22T10:02:57.819Z,1021.93
2023-01-22T10:03:57.832Z,1021.96
2023-01-22T10:04:57.787Z,1021.95
2023-01-22T10:05:57.798Z,1021.96
2023-01-22T10:06:57.768Z,1021.95
2023-01-22T10:07:57.725Z,1021.95
2023-01-22T10:08:57.782Z,1021.91
2023-01-22T10:09:57.734Z,1021.94
2023-01-22T10:10:57.757Z,1021.92
2023-01-22T10:11:57.689Z,1021.90
2023-01-22T10:12:57.705Z,1021.88
2023-01-22T10:13:57.733Z,1021.93
2023-01-22T10:14:57.690Z,1021.93
2023-01-22T10:15:57.664Z,1021.91
2023-01-22T10:16:57.669Z,1021.91
2023-01-22T10:17:57.627Z,1021.93
2023-01-22T10:18:57.660Z,1021.90
2023-01-22T10:19:57.623Z,1021.94
2023-01-22T10:20:57.608Z,1021.92
2023-01-22T10:21:57.586Z,1021.91
2023-01-22T10:22:57.577Z,1021.93
2023-01-22T10:23:57.611Z,1021.96
2023-01-22T10:24:57.561Z,1021.93
2023-01-22T10:25:57.572Z,1021.97
2023-01-22T10:26:57.538Z,1021.96
2023-01-22T10:27:57.527Z,1021.96
2023-01-22T10:28:57.561Z,1021.96
2023-01-22T10:29:57.526Z,1021.96
2023-01-22T10:30:57.552Z,1021.96
2023-01-22T10:31:57.565Z,1021.95
2023-01-22T10:32:57.481Z,1021.96
2023-01-22T10:33:57.518Z,1021.99
2023-01-22T10:34:57.455Z,1022.02
2023-01-22T10:35:57.445Z,1021.95
2023-01-22T10:36:57.412Z,1021.95
2023-01-22T10:37:57.433Z,1021.96
2023-01-22T10:38:57.459Z,1021.92
2023-01-22T10:39:57.402Z,1021.92
2023-01-22T10:40:57.375Z,1021.91
2023-01-22T10:41:57.368Z,1021.91
2023-01-22T10:42:57.367Z,1021.89
2023-01-22T10:43:57.392Z,1021.92
2023-01-22T10:44:57.323Z,1021.94
2023-01-22T10:45:57.327Z,1021.93
2023-01-22T10:46:57.315Z,1021.89
2023-01-22T10:47:57.290Z,1021.93
2023-01-22T10:48:57.336Z,1021.93
2023-01-22T10:49:57.270Z,1021.93
2023-01-22T10:50:57.283Z,1021.93
2023-01-22T10:51:57.242Z,1021.98
2023-01-22T10:52:57.236Z,1021.96
2023-01-22T10:53:57.284Z,1021.98
2023-01-22T10:54:57.218Z,1022.03
2023-01-22T10:55:57.226Z,1022.04
2023-01-22T10:56:57.198Z,1021.98
2023-01-22T10:57:57.200Z,1022.02
2023-01-22T10:58:57.241Z,1022.03
2023-01-22T10:59:57.155Z,1022.10
2023-01-22T11:00:57.172Z,1022.04
2023-01-22T11:01:57.164Z,1022.07
2023-01-22T11:02:57.143Z,1022.02
2023-01-22T11:03:57.158Z,1022.09
2023-01-22T11:04:57.107Z,1022.02
2023-01-22T11:05:57.124Z,1022.03
2023-01-22T11:06:57.100Z,1022.00
2023-01-22T11:07:57.077Z,1021.96
2023-01-22T11:08:57.113Z,1022.05
2023-01-22T11:09:57.039Z,1022.05
2023-01-22T11:10:57.032Z,1022.08
2023-01-22T11:11:57.022Z,1022.07
2023-01-22T11:12:59.324Z,1022.02
2023-01-22T11:13:57.047Z,1022.03
2023-01-22T11:14:56.994Z,1022.03
2023-01-22T11:15:57.074Z,1021.98
2023-01-22T11:16:56.982Z,1021.97
2023-01-22T11:17:56.975Z,1022.00
2023-01-22T11:18:57.012Z,1022.01
2023-01-22T11:19:56.953Z,1022.00
2023-01-22T11:20:56.950Z,1022.04
2023-01-22T11:21:56.923Z,1022.08
2023-01-22T11:22:56.919Z,1022.12
2023-01-22T11:23:56.966Z,1022.10
2023-01-22T11:24:56.901Z,1022.16
2023-01-22T11:25:56.878Z,1022.14
2023-01-22T11:26:56.857Z,1022.12
2023-01-22T11:27:56.959Z,1022.10
2023-01-22T11:28:56.886Z,1022.14
2023-01-22T11:29:56.851Z,1022.19
2023-01-22T11:30:56.887Z,1022.11
2023-01-22T11:31:56.791Z,1022.14
2023-01-22T11:32:56.787Z,1022.12
2023-01-22T11:33:56.833Z,1022.05
2023-01-22T11:34:56.783Z,1022.07
2023-01-22T11:35:56.767Z,1022.02
2023-01-22T11:36:56.757Z,1022.05
2023-01-22T11:37:56.742Z,1022.06
2023-01-22T11:38:56.765Z,1022.07
2023-01-22T11:39:56.716Z,1022.06
2023-01-22T11:40:56.695Z,1022.02
2023-01-22T11:41:56.692Z,1021.97
2023-01-22T11:42:56.686Z,1021.91
2023-01-22T11:43:56.733Z,1021.89
2023-01-22T11:44:56.665Z,1021.90
2023-01-22T11:45:56.695Z,1021.90
2023-01-22T11:46:56.641Z,1021.91
2023-01-22T11:47:56.621Z,1021.95
2023-01-22T11:48:56.659Z,1021.94
2023-01-22T11:49:56.607Z,1021.98
2023-01-22T11:50:56.631Z,1021.95
2023-01-22T11:51:56.585Z,1021.89
2023-01-22T11:52:56.570Z,1021.93
2023-01-22T11:53:56.614Z,1021.94
2023-01-22T11:54:56.564Z,1021.99
2023-01-22T11:55:56.560Z,1021.94
2023-01-22T11:56:56.518Z,1021.90
2023-01-22T11:57:56.521Z,1021.87
2023-01-22T11:58:56.569Z,1021.84
2023-01-22T11:59:56.502Z,1021.83
2023-01-22T12:00:56.479Z,1021.82
2023-01-22T12:01:56.507Z,1021.84
2023-01-22T12:02:56.554Z,1021.82
2023-01-22T12:03:56.536Z,1021.87
2023-01-22T12:04:56.438Z,1021.85